Time;durP1;ratioP1;P1;durP2;ratioP2;P2;SDS_P1;SDS_P2;PMS_P1;PMS_P2;Temp;Humidity;BMP_temperature;BMP_pressure;BME280_temperature;BME280_humidity;BME280_pressure;Samples;Min_cycle;Max_cycle;Signal;HPM_P1;HPM_P2
2023/07/18 00:00:14;;;;;;;1.08;0.47;;;;;;;17.54;68.86;102167.53;4995200;28;96719;-27
2023/07/18 00:02:46;;;;;;;0.98;0.57;;;;;;;17.55;68.70;102171.13;4995662;28;96750;-27
2023/07/18 00:05:12;;;;;;;2.45;0.68;;;;;;;17.56;69.11;102170.13;4995348;28;101225;-27
2023/07/18 00:07:44;;;;;;;1.50;0.52;;;;;;;17.54;68.67;102163.88;4996235;28;99695;-27
2023/07/18 00:10:11;;;;;;;1.75;0.52;;;;;;;17.52;69.27;102174.06;4995568;28;96680;-27
2023/07/18 00:12:38;;;;;;;0.43;0.38;;;;;;;17.50;69.23;102167.84;4995486;28;96892;-27
2023/07/18 00:15:06;;;;;;;0.85;0.38;;;;;;;17.52;69.38;102176.81;4995069;28;101302;-27
2023/07/18 00:17:33;;;;;;;1.40;0.52;;;;;;;17.48;69.56;102167.06;4995493;28;100689;-27
2023/07/18 00:20:09;;;;;;;4.60;0.85;;;;;;;17.42;70.44;102165.59;4996658;28;96673;-27
2023/07/18 00:22:41;;;;;;;1.08;0.60;;;;;;;17.41;70.03;102172.09;4995454;28;96598;-27
2023/07/18 00:25:10;;;;;;;0.65;0.32;;;;;;;17.39;69.29;102165.84;4994694;28;101005;-27
2023/07/18 00:27:36;;;;;;;3.33;0.57;;;;;;;17.34;70.18;102168.00;4994884;28;101248;-27
2023/07/18 00:30:02;;;;;;;1.02;0.50;;;;;;;17.31;70.22;102170.97;4995352;28;96596;-26
2023/07/18 00:32:27;;;;;;;0.57;0.43;;;;;;;17.28;69.87;102162.94;4995372;28;96779;-27
2023/07/18 00:34:56;;;;;;;1.52;0.68;;;;;;;17.27;70.31;102169.44;4996289;28;98480;-27
2023/07/18 00:37:22;;;;;;;1.55;0.65;;;;;;;17.21;70.68;102165.25;4995870;28;99199;-28
2023/07/18 00:39:48;;;;;;;0.88;0.50;;;;;;;17.17;70.72;102169.19;4995087;28;96479;-27
2023/07/18 00:42:13;;;;;;;6.20;0.90;;;;;;;17.11;70.74;102161.38;4996533;28;96912;-27
2023/07/18 00:44:38;;;;;;;2.30;0.63;;;;;;;17.09;69.97;102160.59;4995983;28;99001;-26
2023/07/18 00:47:05;;;;;;;0.77;0.38;;;;;;;17.06;70.85;102158.94;4996156;28;101987;-27
2023/07/18 00:49:31;;;;;;;2.38;0.57;;;;;;;17.11;70.61;102172.31;4993573;28;96565;-27
2023/07/18 00:51:57;;;;;;;2.92;0.60;;;;;;;17.08;71.66;102165.19;4996395;28;96779;-27
2023/07/18 00:54:24;;;;;;;2.83;0.82;;;;;;;17.05;71.48;102168.16;4994511;28;101043;-28
2023/07/18 00:56:49;;;;;;;3.03;0.52;;;;;;;16.97;70.72;102167.78;4995951;28;99187;-26
2023/07/18 00:59:17;;;;;;;5.40;0.68;;;;;;;16.99;70.90;102165.81;4996579;28;96521;-27
2023/07/18 01:01:42;;;;;;;1.00;0.50;;;;;;;16.94;71.28;102160.66;4994694;28;96927;-28
2023/07/18 01:04:08;;;;;;;1.48;0.63;;;;;;;16.91;71.00;102163.59;4995854;28;98081;-27
2023/07/18 01:06:35;;;;;;;0.68;0.45;;;;;;;16.89;71.11;102164.69;4994745;28;101493;-27
2023/07/18 01:09:01;;;;;;;2.55;0.70;;;;;;;16.87;70.84;102166.66;4994675;28;96579;-28
2023/07/18 01:11:26;;;;;;;0.73;0.50;;;;;;;16.85;71.45;102152.19;4996130;28;96843;-27
2023/07/18 01:13:52;;;;;;;1.52;0.52;;;;;;;16.86;71.54;102152.09;4995127;28;99310;-26
2023/07/18 01:16:17;;;;;;;2.45;0.60;;;;;;;16.88;71.03;102152.88;4995152;28;98647;-27
2023/07/18 01:18:42;;;;;;;0.88;0.50;;;;;;;16.88;71.18;102146.53;4996073;28;96604;-27
2023/07/18 01:21:11;;;;;;;3.50;0.50;;;;;;;16.87;70.64;102147.50;4995830;28;96853;-27
2023/07/18 01:23:36;;;;;;;1.67;0.55;;;;;;;16.86;71.89;102148.50;4994047;28;100980;-27
2023/07/18 01:26:02;;;;;;;0.65;0.47;;;;;;;16.80;71.39;102152.50;4995607;28;97434;-28
2023/07/18 01:28:27;;;;;;;3.40;0.52;;;;;;;16.72;71.36;102142.03;4995566;28;97165;-26
2023/07/18 01:30:52;;;;;;;1.58;0.30;;;;;;;16.81;70.99;102142.44;4996195;28;96735;-27
2023/07/18 01:33:18;;;;;;;1.35;0.63;;;;;;;16.84;71.10;102151.31;4995589;28;97435;-27
2023/07/18 01:35:43;;;;;;;0.68;0.40;;;;;;;16.78;70.73;102140.75;4995237;28;97793;-26
2023/07/18 01:38:09;;;;;;;1.52;0.50;;;;;;;16.75;70.93;102147.28;4995264;28;96544;-27
2023/07/18 01:40:34;;;;;;;1.27;0.50;;;;;;;16.74;71.26;102133.72;4993954;28;96925;-27
2023/07/18 01:43:01;;;;;;;1.60;0.55;;;;;;;16.74;70.71;102129.13;4995097;28;99024;-27
2023/07/18 01:45:30;;;;;;;0.63;0.32;;;;;;;16.78;70.41;102129.81;4993875;28;100697;-26
2023/07/18 01:47:57;;;;;;;1.88;0.82;;;;;;;16.74;70.71;102125.53;4993104;28;96867;-26
2023/07/18 01:50:22;;;;;;;1.65;0.47;;;;;;;16.77;71.11;102134.38;4993564;28;96856;-27
2023/07/18 01:52:48;;;;;;;2.03;0.55;;;;;;;16.67;70.72;102115.97;4994837;28;98895;-27
2023/07/18 01:55:14;;;;;;;1.27;0.47;;;;;;;16.71;70.97;102126.59;4993909;28;100998;-26
2023/07/18 01:57:39;;;;;;;4.82;0.77;;;;;;;16.72;70.67;102138.44;4995338;28;96565;-27
2023/07/18 02:00:10;;;;;;;2.50;0.60;;;;;;;16.64;70.76;102118.94;4995243;28;96801;-28
2023/07/18 02:02:36;;;;;;;2.20;0.40;;;;;;;16.63;71.08;102126.22;4992994;28;100919;-28
2023/07/18 02:05:01;;;;;;;1.45;0.60;;;;;;;16.63;70.90;102126.22;4994926;28;101727;-28
2023/07/18 02:07:27;;;;;;;2.00;0.60;;;;;;;16.60;71.18;102118.22;4995561;28;96501;-28
2023/07/18 02:09:52;;;;;;;1.40;0.50;;;;;;;16.60;71.05;102125.56;4995043;28;96887;-27
2023/07/18 02:12:19;;;;;;;0.80;0.50;;;;;;;16.61;70.83;102122.72;4994917;28;97905;-27
2023/07/18 02:14:45;;;;;;;2.45;0.50;;;;;;;16.61;71.12;102124.56;4993326;28;101256;-27
2023/07/18 02:17:10;;;;;;;0.75;0.52;;;;;;;16.56;71.16;102122.16;4994852;28;96617;-28
2023/07/18 02:19:35;;;;;;;0.55;0.38;;;;;;;16.59;70.94;102127.44;4995597;28;96765;-29
2023/07/18 02:22:02;;;;;;;0.63;0.40;;;;;;;16.52;71.48;102113.28;4994520;28;99400;-26
2023/07/18 02:24:27;;;;;;;1.30;0.43;;;;;;;16.52;71.48;102116.00;4993118;28;100908;-27
2023/07/18 02:26:54;;;;;;;0.30;0.22;;;;;;;16.44;71.62;102104.69;4994532;28;96600;-27
2023/07/18 02:29:20;;;;;;;0.68;0.40;;;;;;;16.42;71.73;102111.25;4994805;28;96831;-27
2023/07/18 02:31:45;;;;;;;0.70;0.50;;;;;;;16.43;71.07;102113.00;4993179;28;99037;-27
2023/07/18 02:34:11;;;;;;;3.95;0.40;;;;;;;16.40;71.33;102124.13;4994637;28;97778;-27
2023/07/18 02:36:36;;;;;;;1.20;0.60;;;;;;;16.35;71.67;102127.16;4994683;28;96863;-27
2023/07/18 02:39:03;;;;;;;0.43;0.20;;;;;;;16.34;71.92;102129.03;4995036;28;96861;-27
2023/07/18 02:41:29;;;;;;;1.42;0.40;;;;;;;16.26;71.88;102119.59;4994226;28;97898;-27
2023/07/18 02:43:54;;;;;;;2.63;0.50;;;;;;;16.30;71.78;102118.41;4994451;28;98976;-27
2023/07/18 02:46:19;;;;;;;1.08;0.50;;;;;;;16.25;71.95;102109.63;4994498;28;96623;-27
2023/07/18 02:48:45;;;;;;;2.13;0.65;;;;;;;16.19;71.95;102116.38;4994245;28;96837;-27
2023/07/18 02:51:10;;;;;;;0.85;0.40;;;;;;;16.14;72.32;102107.59;4993651;28;100202;-28
2023/07/18 02:53:36;;;;;;;1.20;0.60;;;;;;;16.22;72.17;102126.22;4994405;28;97623;-28
2023/07/18 02:56:01;;;;;;;1.27;0.43;;;;;;;16.20;72.04;102123.59;4994441;28;96609;-27
2023/07/18 02:58:27;;;;;;;2.63;0.45;;;;;;;16.18;71.71;102120.06;4994403;28;96869;-27
2023/07/18 03:00:52;;;;;;;1.02;0.50;;;;;;;16.18;71.70;102121.94;4994067;28;99343;-27
2023/07/18 03:03:18;;;;;;;2.78;0.60;;;;;;;16.14;72.07;102129.47;4998060;28;97242;-27
2023/07/18 03:05:43;;;;;;;4.57;0.90;;;;;;;16.06;72.43;102124.47;4998236;28;96582;-27
2023/07/18 03:08:08;;;;;;;0.30;0.20;;;;;;;16.01;72.37;102118.44;4998535;28;96783;-27
2023/07/18 03:10:36;;;;;;;2.05;0.70;;;;;;;16.04;72.99;102118.25;4997799;28;97917;-27
2023/07/18 03:13:01;;;;;;;2.65;0.65;;;;;;;16.01;72.33;102115.69;4995973;28;100975;-28
2023/07/18 03:15:27;;;;;;;1.48;0.57;;;;;;;16.07;72.67;102118.03;4997383;28;96633;-27
2023/07/18 03:17:52;;;;;;;2.70;0.60;;;;;;;16.05;72.31;102113.66;4997973;28;96807;-27
2023/07/18 03:20:19;;;;;;;1.17;0.68;;;;;;;15.99;73.00;102123.09;4997466;28;97459;-27
2023/07/18 03:22:48;;;;;;;0.63;0.40;;;;;;;15.95;73.09;102113.38;4995804;28;101203;-27
2023/07/18 03:25:16;;;;;;;1.27;0.32;;;;;;;15.94;73.21;102111.59;4996250;28;96700;-27
2023/07/18 03:27:41;;;;;;;2.17;0.68;;;;;;;15.89;72.95;102116.47;4997306;28;96792;-27
2023/07/18 03:30:10;;;;;;;3.03;0.60;;;;;;;15.94;73.54;102119.78;4997205;28;99349;-28
2023/07/18 03:32:36;;;;;;;0.80;0.38;;;;;;;15.86;74.02;102113.97;4996139;28;101283;-27
2023/07/18 03:35:02;;;;;;;0.52;0.43;;;;;;;15.85;73.21;102114.91;4996121;28;96773;-27
2023/07/18 03:37:28;;;;;;;1.73;0.70;;;;;;;15.86;73.66;102119.41;4997611;28;96755;-27
2023/07/18 03:39:53;;;;;;;7.93;1.00;;;;;;;15.81;74.29;102108.78;4996741;28;97929;-27
2023/07/18 03:42:19;;;;;;;4.10;0.70;;;;;;;15.82;73.79;102115.13;4996787;28;97342;-27
2023/07/18 03:44:44;;;;;;;1.30;0.50;;;;;;;15.83;73.84;102122.34;4997407;28;96665;-27
2023/07/18 03:47:10;;;;;;;2.38;0.65;;;;;;;15.80;74.64;102131.63;4997399;28;96761;-27
2023/07/18 03:49:36;;;;;;;0.90;0.68;;;;;;;15.74;74.34;102128.41;4996200;28;97405;-27
2023/07/18 03:52:02;;;;;;;2.47;0.90;;;;;;;15.77;74.07;102120.88;4996648;28;99550;-27
2023/07/18 03:54:28;;;;;;;1.83;0.70;;;;;;;15.80;74.57;102130.72;4995908;28;96644;-28
2023/07/18 03:56:53;;;;;;;2.40;0.75;;;;;;;15.82;74.49;102131.50;4997572;28;96817;-27
2023/07/18 03:59:18;;;;;;;1.75;0.70;;;;;;;15.77;74.30;102112.69;4996915;28;97878;-27
2023/07/18 04:01:44;;;;;;;1.02;0.55;;;;;;;15.67;74.89;102114.19;4996793;28;97494;-27
2023/07/18 04:04:09;;;;;;;1.10;0.52;;;;;;;15.72;74.78;102112.09;4996755;28;96763;-27
2023/07/18 04:06:35;;;;;;;2.15;0.60;;;;;;;15.79;74.39;102123.50;4996893;28;96832;-27
2023/07/18 04:09:00;;;;;;;3.50;1.08;;;;;;;15.77;74.61;102120.00;4996552;28;99151;-27
2023/07/18 04:11:25;;;;;;;1.85;0.77;;;;;;;15.75;74.42;102122.81;4996063;28;97847;-27
2023/07/18 04:13:51;;;;;;;2.40;1.17;;;;;;;15.76;74.15;102113.66;4997108;28;96568;-27
2023/07/18 04:16:16;;;;;;;2.70;1.13;;;;;;;15.75;75.01;102111.88;4997190;28;96788;-27
2023/07/18 04:18:41;;;;;;;1.05;0.75;;;;;;;15.63;74.89;102113.50;4996534;28;97880;-27
2023/07/18 04:21:07;;;;;;;3.53;0.88;;;;;;;15.66;74.80;102113.34;4997122;28;97246;-27
2023/07/18 04:23:32;;;;;;;1.98;0.77;;;;;;;15.68;74.81;102116.84;4996915;28;96817;-26
2023/07/18 04:26:02;;;;;;;1.90;0.90;;;;;;;15.66;74.57;102116.06;4996908;28;96811;-27
2023/07/18 04:28:32;;;;;;;2.08;1.10;;;;;;;15.66;75.06;102102.41;4994645;28;100718;-27
2023/07/18 04:30:57;;;;;;;1.00;0.60;;;;;;;15.71;75.40;102104.88;4995022;28;101236;-27
2023/07/18 04:33:23;;;;;;;4.35;0.80;;;;;;;15.70;74.65;102100.38;4996694;28;96650;-27
2023/07/18 04:35:49;;;;;;;2.58;1.00;;;;;;;15.74;74.91;102092.88;4994986;28;96897;-27
2023/07/18 04:38:14;;;;;;;3.63;0.95;;;;;;;15.76;75.25;102102.72;4996106;28;99449;-27
2023/07/18 04:40:40;;;;;;;3.20;0.95;;;;;;;15.79;74.72;102097.06;4995895;28;97782;-27
2023/07/18 04:43:06;;;;;;;2.85;1.40;;;;;;;15.70;75.23;102103.09;4995145;28;96743;-26
2023/07/18 04:45:32;;;;;;;3.17;1.13;;;;;;;15.65;74.79;102105.22;4996920;28;96768;-27
2023/07/18 04:47:57;;;;;;;1.95;1.02;;;;;;;15.67;75.43;102106.88;4995738;28;99843;-27
2023/07/18 04:50:23;;;;;;;1.98;1.05;;;;;;;15.66;76.11;102102.41;4995848;28;97267;-27
2023/07/18 04:52:48;;;;;;;3.72;1.23;;;;;;;15.68;76.20;102100.47;4995929;28;96600;-26
2023/07/18 04:55:15;;;;;;;2.72;1.02;;;;;;;15.70;75.59;102093.06;4996193;28;96794;-29
2023/07/18 04:57:40;;;;;;;5.47;1.65;;;;;;;15.75;76.02;102097.34;4994357;28;101558;-27
2023/07/18 05:00:06;;;;;;;1.77;1.02;;;;;;;15.80;75.14;102097.94;4994519;28;99694;-28
2023/07/18 05:02:32;;;;;;;3.53;1.05;;;;;;;15.77;76.11;102081.75;4994764;28;96892;-27
2023/07/18 05:04:57;;;;;;;1.88;0.77;;;;;;;15.73;76.06;102086.53;4996228;28;96791;-26
2023/07/18 05:07:22;;;;;;;7.35;1.40;;;;;;;15.69;76.73;102079.47;4995971;28;97931;-26
2023/07/18 05:09:48;;;;;;;5.97;1.27;;;;;;;15.68;77.18;102084.06;4995896;28;97865;-27
2023/07/18 05:12:13;;;;;;;1.67;0.77;;;;;;;15.68;77.90;102088.63;4995799;28;96770;-27
2023/07/18 05:14:39;;;;;;;1.23;0.70;;;;;;;15.70;76.61;102086.72;4995123;28;96808;-27
2023/07/18 05:17:04;;;;;;;3.60;1.10;;;;;;;15.66;77.57;102075.09;4995025;28;98037;-27
2023/07/18 05:19:30;;;;;;;2.42;1.13;;;;;;;15.66;77.23;102085.13;4995423;28;99254;-27
2023/07/18 05:21:55;;;;;;;2.13;0.88;;;;;;;15.71;77.95;102078.44;4995783;28;96554;-27
2023/07/18 05:24:20;;;;;;;2.88;1.05;;;;;;;15.71;77.16;102083.91;4994829;28;96820;-27
2023/07/18 05:26:46;;;;;;;5.10;0.90;;;;;;;15.75;76.96;102078.22;4995714;28;97967;-26
2023/07/18 05:29:11;;;;;;;4.28;0.95;;;;;;;15.78;77.48;102072.56;4995559;28;97784;-28
2023/07/18 05:31:36;;;;;;;2.53;1.15;;;;;;;15.78;77.66;102078.03;4995522;28;96494;-28
2023/07/18 05:34:02;;;;;;;3.75;0.85;;;;;;;15.80;77.55;102079.72;4994814;28;96797;-30
2023/07/18 05:36:28;;;;;;;5.82;1.15;;;;;;;15.86;77.28;102086.63;4992564;28;99447;-28
2023/07/18 05:38:53;;;;;;;2.20;1.13;;;;;;;15.93;77.85;102090.72;4992957;28;97245;-28
2023/07/18 05:41:18;;;;;;;2.65;1.27;;;;;;;15.99;77.44;102084.84;4992743;28;97002;-27
2023/07/18 05:43:43;;;;;;;3.60;1.23;;;;;;;16.05;76.93;102092.66;4993142;28;97267;-28
2023/07/18 05:46:09;;;;;;;5.38;1.20;;;;;;;16.10;77.17;102106.91;4993058;28;97366;-27
2023/07/18 05:48:35;;;;;;;3.20;1.33;;;;;;;16.13;77.25;102095.75;4992781;28;97825;-26
2023/07/18 05:51:01;;;;;;;2.88;1.50;;;;;;;16.19;78.14;102107.31;4995601;28;96581;-27
2023/07/18 05:53:26;;;;;;;3.50;1.08;;;;;;;16.19;77.59;102108.16;4995375;28;96564;-27
2023/07/18 05:55:52;;;;;;;5.95;1.42;;;;;;;16.25;76.32;102102.28;4994783;28;99414;-27
2023/07/18 05:58:17;;;;;;;4.28;1.48;;;;;;;16.35;77.08;102102.56;4995264;28;99337;-27
2023/07/18 06:00:43;;;;;;;6.22;1.48;;;;;;;16.41;77.43;102114.97;4995279;28;96537;-27
2023/07/18 06:03:08;;;;;;;3.63;1.38;;;;;;;16.43;76.85;102108.41;4995756;28;96782;-27
2023/07/18 06:05:33;;;;;;;4.00;1.83;;;;;;;16.38;78.27;102115.19;4994549;28;98010;-27
2023/07/18 06:07:59;;;;;;;7.65;2.08;;;;;;;16.41;78.42;102109.50;4994575;28;99109;-27
2023/07/18 06:10:24;;;;;;;4.15;1.92;;;;;;;16.47;77.71;102109.06;4995242;28;96583;-27
2023/07/18 06:12:49;;;;;;;8.65;2.83;;;;;;;16.43;79.15;102107.53;4995209;28;96798;-27
2023/07/18 06:15:15;;;;;;;7.72;2.28;;;;;;;16.48;78.40;102119.94;4994742;28;99263;-27
2023/07/18 06:17:40;;;;;;;6.53;2.30;;;;;;;16.53;78.32;102119.63;4994665;28;99304;-27
2023/07/18 06:20:12;;;;;;;9.15;2.35;;;;;;;16.45;79.88;102111.06;4994797;28;96501;-27
2023/07/18 06:22:37;;;;;;;7.85;3.00;;;;;;;16.42;79.61;102116.72;4988027;28;97432;-27
2023/07/18 06:25:03;;;;;;;6.78;2.42;;;;;;;16.43;80.37;102124.81;4994506;28;99508;-27
2023/07/18 06:27:31;;;;;;;8.70;2.88;;;;;;;16.45;80.21;102128.34;4994764;28;97610;-27
2023/07/18 06:29:56;;;;;;;6.55;2.38;;;;;;;16.45;81.61;102133.81;4993060;28;96732;-27
2023/07/18 06:32:22;;;;;;;4.65;2.40;;;;;;;16.46;81.64;102135.56;4994575;28;96744;-27
2023/07/18 06:34:47;;;;;;;7.55;3.08;;;;;;;16.49;80.48;102131.75;4994280;28;98404;-27
2023/07/18 06:37:12;;;;;;;7.03;2.75;;;;;;;16.59;80.77;102130.16;4994159;28;99208;-27
2023/07/18 06:39:38;;;;;;;10.45;3.03;;;;;;;16.62;80.19;102120.88;4995245;28;96443;-27
2023/07/18 06:42:05;;;;;;;6.68;2.92;;;;;;;16.70;79.55;102126.69;4993372;28;96650;-27
2023/07/18 06:44:31;;;;;;;8.65;2.90;;;;;;;16.67;80.87;102124.19;4992975;28;101071;-26
2023/07/18 06:46:56;;;;;;;7.18;2.75;;;;;;;16.61;82.42;102125.44;4993221;28;99103;-27
2023/07/18 06:49:22;;;;;;;7.53;3.47;;;;;;;16.61;80.46;102122.72;4994010;28;96842;-27
2023/07/18 06:51:49;;;;;;;6.50;3.58;;;;;;;16.56;82.17;102120.31;4994255;28;96841;-27
2023/07/18 06:54:15;;;;;;;11.43;2.95;;;;;;;16.64;81.10;102125.25;4993854;28;97957;-28
2023/07/18 06:56:42;;;;;;;6.70;3.35;;;;;;;16.70;81.27;102110.28;4994184;28;99269;-27
2023/07/18 06:59:09;;;;;;;10.48;3.40;;;;;;;16.82;79.52;102109.47;4993247;28;97096;-27
2023/07/18 07:01:34;;;;;;;8.75;3.00;;;;;;;16.97;79.23;102110.28;4992926;28;96788;-27
2023/07/18 07:04:01;;;;;;;6.50;3.08;;;;;;;17.10;79.03;102104.88;4993926;28;99259;-27
2023/07/18 07:06:26;;;;;;;6.45;3.13;;;;;;;17.34;78.76;102114.09;4993772;28;97951;-27
2023/07/18 07:08:52;;;;;;;6.97;3.13;;;;;;;17.58;78.29;102103.28;4994460;28;96490;-27
2023/07/18 07:11:17;;;;;;;7.80;3.33;;;;;;;17.76;76.75;102102.97;4995020;28;96815;-27
2023/07/18 07:13:43;;;;;;;6.88;3.50;;;;;;;17.90;76.50;102111.09;4994113;28;98061;-27
2023/07/18 07:16:08;;;;;;;11.68;3.83;;;;;;;17.92;76.73;102097.28;4994060;28;97262;-27
2023/07/18 07:18:33;;;;;;;7.63;3.78;;;;;;;18.08;76.88;102094.28;4993559;28;97059;-27
2023/07/18 07:21:00;;;;;;;11.93;4.13;;;;;;;18.13;76.83;102101.19;4993790;28;96741;-27
2023/07/18 07:23:25;;;;;;;7.65;3.53;;;;;;;18.33;76.17;102093.34;4992492;28;101517;-29
2023/07/18 07:25:51;;;;;;;7.72;3.92;;;;;;;18.50;75.89;102094.84;4994029;28;97780;-27
2023/07/18 07:28:16;;;;;;;7.75;3.92;;;;;;;18.61;75.39;102095.75;4994007;28;96600;-27
2023/07/18 07:30:42;;;;;;;6.65;3.60;;;;;;;18.69;75.02;102097.94;4994343;28;96769;-26
2023/07/18 07:33:07;;;;;;;9.32;4.15;;;;;;;18.98;73.77;102097.63;4993729;28;98967;-27
2023/07/18 07:35:33;;;;;;;8.82;3.08;;;;;;;19.28;73.18;102095.22;4993935;28;97528;-27
2023/07/18 07:37:59;;;;;;;9.63;3.47;;;;;;;19.34;72.62;102096.59;4992769;28;96735;-27
2023/07/18 07:40:24;;;;;;;7.53;3.47;;;;;;;19.33;72.77;102102.22;4994082;28;96720;-26
2023/07/18 07:42:49;;;;;;;7.93;3.33;;;;;;;19.55;72.40;102101.41;4993166;28;98047;-28
2023/07/18 07:45:16;;;;;;;12.82;3.80;;;;;;;19.77;72.18;102095.97;4993360;28;99109;-27
2023/07/18 07:47:41;;;;;;;10.50;3.97;;;;;;;19.82;71.06;102088.22;4995062;28;96713;-27
2023/07/18 07:50:07;;;;;;;10.63;4.13;;;;;;;19.80;70.70;102084.69;4996804;28;96854;-27
2023/07/18 07:52:33;;;;;;;6.75;3.30;;;;;;;19.75;70.67;102086.94;4996834;28;99399;-27
2023/07/18 07:54:59;;;;;;;10.57;4.20;;;;;;;19.71;71.01;102077.19;4995433;28;101085;-27
2023/07/18 07:57:24;;;;;;;8.93;3.83;;;;;;;19.79;70.78;102077.47;4997371;28;96559;-26
2023/07/18 07:59:53;;;;;;;8.40;3.35;;;;;;;20.04;70.90;102078.19;4997713;28;96783;-27
2023/07/18 08:02:19;;;;;;;7.00;3.22;;;;;;;20.28;70.12;102080.81;4995380;28;101438;-26
2023/07/18 08:04:45;;;;;;;8.95;3.70;;;;;;;20.23;69.76;102083.94;4995203;28;101627;-27
2023/07/18 08:07:11;;;;;;;10.15;3.75;;;;;;;20.41;69.83;102097.19;4996557;28;96596;-28
2023/07/18 08:09:37;;;;;;;4.57;2.50;;;;;;;20.61;68.86;102090.03;4995481;28;96858;-26
2023/07/18 08:12:04;;;;;;;6.78;3.28;;;;;;;20.78;68.73;102086.72;4996490;28;99509;-27
2023/07/18 08:14:33;;;;;;;12.15;3.58;;;;;;;20.85;67.70;102085.19;4995207;28;102721;-27
2023/07/18 08:16:58;;;;;;;7.15;3.90;;;;;;;20.76;68.10;102075.84;4995492;28;96591;-27
2023/07/18 08:19:24;;;;;;;12.52;3.75;;;;;;;20.73;68.34;102076.06;4996603;28;96966;-28
2023/07/18 08:21:50;;;;;;;8.00;3.42;;;;;;;20.78;67.97;102079.34;4996610;28;97991;-27
2023/07/18 08:24:15;;;;;;;7.47;3.15;;;;;;;20.88;68.12;102081.28;4997165;28;97215;-27
2023/07/18 08:26:40;;;;;;;11.95;3.80;;;;;;;20.95;67.48;102088.00;4996759;28;96586;-27
2023/07/18 08:29:06;;;;;;;6.03;3.10;;;;;;;20.91;67.45;102086.56;4996596;28;96837;-26
2023/07/18 08:31:31;;;;;;;7.50;3.38;;;;;;;20.93;67.77;102079.91;4995995;28;98040;-27
2023/07/18 08:33:57;;;;;;;8.90;2.92;;;;;;;21.09;67.34;102075.81;4995813;28;98672;-27
2023/07/18 08:36:22;;;;;;;8.20;3.28;;;;;;;21.29;66.91;102074.97;4996480;28;99747;-27
2023/07/18 08:38:51;;;;;;;6.03;3.40;;;;;;;21.44;66.18;102067.25;4996675;28;96790;-27
2023/07/18 08:41:20;;;;;;;6.75;3.13;;;;;;;21.32;66.45;102077.44;4994696;28;101451;-27
2023/07/18 08:43:49;;;;;;;6.32;2.80;;;;;;;21.39;66.52;102066.75;4994885;28;100883;-27
2023/07/18 08:46:15;;;;;;;5.90;2.72;;;;;;;21.55;65.54;102069.06;4996241;28;96642;-26
2023/07/18 08:48:44;;;;;;;7.40;2.70;;;;;;;21.48;65.51;102070.63;4994935;28;96935;-27
2023/07/18 08:51:11;;;;;;;7.28;2.78;;;;;;;21.55;64.78;102072.69;4994537;28;100694;-26
2023/07/18 08:53:40;;;;;;;6.32;3.00;;;;;;;21.38;64.96;102064.97;4994494;28;101539;-27
2023/07/18 08:56:09;;;;;;;4.93;2.65;;;;;;;21.35;65.28;102076.28;4977783;28;96856;-27
2023/07/18 08:58:39;;;;;;;8.45;2.53;;;;;;;21.16;65.78;102066.00;4994829;28;96927;-27
2023/07/18 09:01:05;;;;;;;8.05;2.60;;;;;;;21.32;66.02;102057.28;4994159;28;100497;-27
2023/07/18 09:03:31;;;;;;;9.48;2.85;;;;;;;21.36;65.68;102070.66;4994343;28;101235;-27
2023/07/18 09:06:00;;;;;;;5.47;2.55;;;;;;;21.41;65.49;102075.78;4996316;28;96509;-26
2023/07/18 09:08:25;;;;;;;4.60;2.05;;;;;;;21.37;65.11;102060.50;4994809;28;97046;-27
2023/07/18 09:11:04;;;;;;;5.63;2.25;;;;;;;21.39;64.83;102061.22;4995560;28;99307;-26
2023/07/18 09:13:40;;;;;;;6.10;2.50;;;;;;;21.54;64.90;102056.28;4994415;28;100909;-26
2023/07/18 09:16:12;;;;;;;5.55;2.30;;;;;;;21.77;64.15;102055.09;4995715;28;96634;-27
2023/07/18 09:18:38;;;;;;;5.53;2.78;;;;;;;21.84;62.69;102058.19;4996061;28;96841;-27
2023/07/18 09:21:09;;;;;;;5.90;2.25;;;;;;;21.85;62.26;102048.88;4994920;28;99347;-26
2023/07/18 09:23:39;;;;;;;7.40;2.88;;;;;;;21.81;62.31;102039.16;4994098;28;100882;-29
2023/07/18 09:26:10;;;;;;;6.05;2.38;;;;;;;21.91;62.07;102051.09;4994080;28;96667;-27
2023/07/18 09:28:36;;;;;;;4.70;2.10;;;;;;;22.03;61.79;102047.22;4995687;28;96892;-26
2023/07/18 09:31:01;;;;;;;6.10;1.88;;;;;;;22.15;60.72;102047.09;4994100;28;100959;-27
2023/07/18 09:33:27;;;;;;;3.33;1.55;;;;;;;22.34;60.90;102044.41;4995584;28;97788;-27
2023/07/18 09:35:57;;;;;;;6.07;2.13;;;;;;;22.35;59.63;102026.81;4995665;28;96931;-27
2023/07/18 09:38:22;;;;;;;6.22;2.17;;;;;;;22.58;60.25;102054.19;4994444;28;96811;-27
2023/07/18 09:40:48;;;;;;;4.32;2.08;;;;;;;22.66;60.28;102040.53;4995085;28;99136;-26
2023/07/18 09:43:15;;;;;;;7.85;2.00;;;;;;;22.84;59.83;102033.28;4995255;28;97975;-26
2023/07/18 09:45:42;;;;;;;3.80;1.83;;;;;;;22.98;59.31;102028.34;4993666;28;96619;-26
2023/07/18 09:48:10;;;;;;;9.07;2.70;;;;;;;23.24;58.92;102040.53;4993526;28;96922;-27
2023/07/18 09:50:39;;;;;;;4.15;1.90;;;;;;;23.40;58.53;102037.13;4993845;28;99538;-28
2023/07/18 09:53:10;;;;;;;4.95;2.00;;;;;;;23.41;57.52;102030.59;4993377;28;101668;-27
2023/07/18 09:55:38;;;;;;;;;;;;;;;23.56;57.70;102031.00;4994498;28;96741;-26
2023/07/18 09:58:05;;;;;;;5.20;1.95;;;;;;;23.69;56.99;102028.78;4995509;28;96784;-27
2023/07/18 10:00:32;;;;;;;6.90;2.13;;;;;;;23.89;57.04;102024.03;4995088;28;97413;-27
2023/07/18 10:02:58;;;;;;;10.32;2.50;;;;;;;24.04;56.90;102021.63;4993834;28;101418;-28
2023/07/18 10:05:24;;;;;;;4.15;2.08;;;;;;;24.22;56.47;102018.91;4995275;28;96525;-27
2023/07/18 10:07:49;;;;;;;4.10;1.67;;;;;;;24.36;55.69;102007.31;4993681;28;96933;-27
2023/07/18 10:10:15;;;;;;;5.93;2.08;;;;;;;24.36;56.25;102003.66;4993620;28;99322;-28
2023/07/18 10:12:53;;;;;;;4.25;1.77;;;;;;;24.20;55.51;102009.03;4993372;28;100899;-27
2023/07/18 10:15:19;;;;;;;4.95;2.10;;;;;;;24.02;56.04;102000.66;4994982;28;96546;-27
2023/07/18 10:17:44;;;;;;;6.10;2.40;;;;;;;24.32;56.06;101992.03;4995231;28;96849;-27
2023/07/18 10:20:19;;;;;;;4.28;1.63;;;;;;;24.30;54.05;101985.75;4994566;28;97894;-26
2023/07/18 10:22:54;;;;;;;6.22;1.88;;;;;;;24.33;53.74;101979.91;4993292;28;99066;-27
2023/07/18 10:25:20;;;;;;;3.92;1.73;;;;;;;24.38;54.69;101976.66;4995133;28;96587;-27
2023/07/18 10:27:48;;;;;;;2.85;1.63;;;;;;;24.55;54.79;101958.31;4995304;28;96772;-28
2023/07/18 10:30:16;;;;;;;4.28;1.83;;;;;;;24.86;54.15;101967.13;4993035;28;99572;-28
2023/07/18 10:32:43;;;;;;;3.85;1.50;;;;;;;25.16;54.16;101973.22;4992961;28;101466;-26
2023/07/18 10:35:13;;;;;;;5.65;1.40;;;;;;;25.20;52.83;101980.22;4992733;28;96790;-26
2023/07/18 10:37:43;;;;;;;4.22;1.27;;;;;;;25.17;52.51;101977.72;4994567;28;96818;-28
2023/07/18 10:40:09;;;;;;;3.65;1.40;;;;;;;25.04;53.83;101982.84;4992992;28;101025;-28
2023/07/18 10:42:35;;;;;;;4.00;1.30;;;;;;;25.02;53.20;101974.66;4993052;28;100534;-28
2023/07/18 10:45:01;;;;;;;3.30;1.40;;;;;;;24.98;52.49;101964.94;4993174;28;96493;-28
2023/07/18 10:47:28;;;;;;;4.47;1.30;;;;;;;24.98;53.06;101970.50;4993287;28;96830;-28
2023/07/18 10:49:53;;;;;;;4.40;1.30;;;;;;;25.19;51.97;101973.81;4975734;28;100732;-26
2023/07/18 10:52:21;;;;;;;2.38;1.08;;;;;;;25.38;51.86;101967.13;4994840;28;97380;-27
2023/07/18 10:54:49;;;;;;;5.60;1.30;;;;;;;25.50;51.97;101981.59;4993215;28;96614;-27
2023/07/18 10:57:15;;;;;;;2.13;0.95;;;;;;;25.32;52.45;101980.81;4994734;28;96851;-27
2023/07/18 10:59:44;;;;;;;4.80;1.45;;;;;;;25.33;51.76;101975.06;4992108;28;101070;-27
2023/07/18 11:02:10;;;;;;;5.88;1.35;;;;;;;25.51;51.63;101955.59;4992677;28;100984;-27
2023/07/18 11:04:36;;;;;;;5.30;1.35;;;;;;;25.75;50.33;101957.63;4993077;28;96686;-27
2023/07/18 11:07:01;;;;;;;2.50;1.15;;;;;;;25.89;50.79;101941.41;4994603;28;96682;-27
2023/07/18 11:09:27;;;;;;;4.03;1.52;;;;;;;26.02;49.89;101941.75;4994250;28;98054;-26
2023/07/18 11:11:52;;;;;;;3.15;1.27;;;;;;;26.13;48.56;101952.56;4994153;28;97844;-27
2023/07/18 11:14:18;;;;;;;3.50;1.70;;;;;;;26.15;47.48;101952.38;4994283;28;97244;-26
2023/07/18 11:16:44;;;;;;;2.58;1.42;;;;;;;26.05;48.37;101946.97;4993208;28;96883;-26
2023/07/18 11:19:10;;;;;;;3.35;1.40;;;;;;;26.13;48.58;101941.47;4992601;28;101016;-27